createdAt,value
2023-01-11T00:00:52.450Z,987.76
2023-01-11T00:01:52.540Z,987.76
2023-01-11T00:02:52.430Z,987.78
2023-01-11T00:03:52.391Z,987.76
2023-01-11T00:04:52.485Z,987.75
2023-01-11T00:05:52.378Z,987.76
2023-01-11T00:06:52.391Z,987.73
2023-01-11T00:07:52.393Z,987.72
2023-01-11T00:08:52.366Z,987.77
2023-01-11T00:09:52.352Z,987.76
2023-01-11T00:10:52.358Z,987.77
2023-01-11T00:11:52.340Z,987.84
2023-01-11T00:12:52.304Z,987.79
2023-01-11T00:13:52.325Z,987.79
2023-01-11T00:14:52.316Z,987.78
2023-01-11T00:15:52.339Z,987.84
2023-01-11T00:16:52.282Z,987.79
2023-01-11T00:17:52.274Z,987.73
2023-01-11T00:18:52.269Z,987.80
2023-01-11T00:19:52.236Z,987.78
2023-01-11T00:20:52.262Z,987.81
2023-01-11T00:21:52.212Z,987.75
2023-01-11T00:22:52.258Z,987.72
2023-01-11T00:23:52.217Z,987.72
2023-01-11T00:24:53.194Z,987.69
2023-01-11T00:25:52.184Z,987.76
2023-01-11T00:26:52.261Z,987.69
2023-01-11T00:27:52.196Z,987.69
2023-01-11T00:28:52.140Z,987.68
2023-01-11T00:29:52.158Z,987.68
2023-01-11T00:30:52.260Z,987.66
2023-01-11T00:31:52.109Z,987.69
2023-01-11T00:32:52.104Z,987.63
2023-01-11T00:33:52.126Z,987.60
2023-01-11T00:34:52.089Z,987.61
2023-01-11T00:35:52.069Z,987.50
2023-01-11T00:36:52.082Z,987.51
2023-01-11T00:37:52.038Z,987.54
2023-01-11T00:38:52.040Z,987.51
2023-01-11T00:39:52.059Z,987.45
2023-01-11T00:40:52.050Z,987.48
2023-01-11T00:41:52.001Z,987.44
2023-01-11T00:42:52.012Z,987.46
2023-01-11T00:43:52.016Z,987.45
2023-01-11T00:44:53.026Z,987.51
2023-01-11T00:45:52.108Z,987.39
2023-01-11T00:46:51.994Z,987.36
2023-01-11T00:47:51.934Z,987.45
2023-01-11T00:48:51.936Z,987.36
2023-01-11T00:49:51.961Z,987.39
2023-01-11T00:50:51.942Z,987.46
2023-01-11T00:51:51.897Z,987.45
2023-01-11T00:52:51.933Z,987.39
2023-01-11T00:53:51.873Z,987.34
2023-01-11T00:54:51.889Z,987.42
2023-01-11T00:55:51.888Z,987.33
2023-01-11T00:56:51.867Z,987.29
2023-01-11T00:57:51.858Z,987.28
2023-01-11T00:58:51.832Z,987.29
2023-01-11T00:59:51.840Z,987.33
2023-01-11T01:00:51.842Z,987.27
2023-01-11T01:01:51.783Z,987.32
2023-01-11T01:02:51.861Z,987.31
2023-01-11T01:03:51.809Z,987.28
2023-01-11T01:04:51.783Z,987.33
2023-01-11T01:05:51.760Z,987.35
2023-01-11T01:06:51.775Z,987.40
2023-01-11T01:07:51.774Z,987.30
2023-01-11T01:08:51.717Z,987.34
2023-01-11T01:09:51.761Z,987.33
2023-01-11T01:10:51.725Z,987.27
2023-01-11T01:11:51.706Z,987.23
2023-01-11T01:12:51.705Z,987.22
2023-01-11T01:13:51.701Z,987.15
2023-01-11T01:14:51.682Z,987.12
2023-01-11T01:15:51.662Z,987.15
2023-01-11T01:16:51.679Z,987.20
2023-01-11T01:17:51.632Z,987.17
2023-01-11T01:18:51.637Z,987.20
2023-01-11T01:19:51.638Z,987.09
2023-01-11T01:20:51.641Z,987.12
2023-01-11T01:21:51.583Z,987.18
2023-01-11T01:22:51.583Z,987.14
2023-01-11T01:23:51.600Z,987.24
2023-01-11T01:24:51.573Z,987.23
2023-01-11T01:25:51.587Z,987.15
2023-01-11T01:26:51.547Z,987.20
2023-01-11T01:27:51.525Z,987.14
2023-01-11T01:28:51.525Z,987.22
2023-01-11T01:29:51.545Z,987.16
2023-01-11T01:30:51.592Z,987.11
2023-01-11T01:31:51.489Z,987.09
2023-01-11T01:32:51.476Z,987.10
2023-01-11T01:33:51.496Z,987.12
2023-01-11T01:34:51.472Z,987.07
2023-01-11T01:35:51.435Z,987.03
2023-01-11T01:36:51.452Z,987.03
2023-01-11T01:37:51.448Z,987.08
2023-01-11T01:38:51.422Z,986.87
2023-01-11T01:39:51.408Z,987.04
2023-01-11T01:40:51.416Z,987.03
2023-01-11T01:41:51.386Z,987.01
2023-01-11T01:42:52.385Z,986.97
2023-01-11T01:43:51.383Z,986.94
2023-01-11T01:44:51.369Z,986.94
2023-01-11T01:45:51.332Z,986.90
2023-01-11T01:46:51.350Z,986.86
2023-01-11T01:47:51.342Z,986.97
2023-01-11T01:48:51.307Z,986.98
2023-01-11T01:49:51.325Z,987.00
2023-01-11T01:50:51.321Z,986.92
2023-01-11T01:51:51.291Z,986.94
2023-01-11T01:52:51.282Z,986.87
2023-01-11T01:53:51.283Z,986.98
2023-01-11T01:54:51.261Z,986.87
2023-01-11T01:55:51.240Z,986.86
2023-01-11T01:56:51.249Z,986.91
2023-01-11T01:57:51.233Z,986.89
2023-01-11T01:58:51.217Z,986.85
2023-01-11T01:59:51.227Z,986.79
2023-01-11T02:00:51.212Z,986.81
2023-01-11T02:01:51.221Z,986.73
2023-01-11T02:02:51.223Z,986.75
2023-01-11T02:03:51.194Z,986.79
2023-01-11T02:04:51.178Z,986.87
2023-01-11T02:05:51.149Z,986.85
2023-01-11T02:06:51.252Z,986.84
2023-01-11T02:07:51.143Z,986.80
2023-01-11T02:08:51.115Z,986.86
2023-01-11T02:09:51.111Z,986.76
2023-01-11T02:10:51.104Z,986.68
2023-01-11T02:11:51.097Z,986.85
2023-01-11T02:12:51.065Z,986.76
2023-01-11T02:13:51.083Z,986.77
2023-01-11T02:14:51.069Z,986.71
2023-01-11T02:15:51.036Z,986.74
2023-01-11T02:16:51.036Z,986.67
2023-01-11T02:17:51.061Z,986.73
2023-01-11T02:18:51.025Z,986.75
2023-01-11T02:19:50.986Z,986.79
2023-01-11T02:20:51.009Z,986.78
2023-01-11T02:21:50.975Z,986.78
2023-01-11T02:22:50.980Z,986.76
2023-01-11T02:23:50.981Z,986.82
2023-01-11T02:24:50.960Z,986.76
2023-01-11T02:25:50.927Z,986.69
2023-01-11T02:26:50.931Z,986.68
2023-01-11T02:27:50.952Z,986.66
2023-01-11T02:28:50.912Z,986.68
2023-01-11T02:29:50.937Z,986.71
2023-01-11T02:30:54.645Z,986.68
2023-01-11T02:31:50.886Z,986.67
2023-01-11T02:32:50.884Z,986.67
2023-01-11T02:33:50.896Z,986.59
2023-01-11T02:34:50.884Z,986.53
2023-01-11T02:35:50.836Z,986.61
2023-01-11T02:36:50.874Z,986.64
2023-01-11T02:37:50.836Z,986.56
2023-01-11T02:38:50.823Z,986.60
2023-01-11T02:39:50.800Z,986.49
2023-01-11T02:40:50.786Z,986.50
2023-01-11T02:41:50.797Z,986.40
2023-01-11T02:42:50.779Z,986.41
2023-01-11T02:43:50.758Z,986.34
2023-01-11T02:44:50.759Z,986.34
2023-01-11T02:45:50.739Z,986.40
2023-01-11T02:46:50.818Z,986.37
2023-01-11T02:47:50.742Z,986.36
2023-01-11T02:48:50.719Z,986.38
2023-01-11T02:49:50.722Z,986.31
2023-01-11T02:50:50.714Z,986.29
2023-01-11T02:51:50.719Z,986.33
2023-01-11T02:52:50.720Z,986.33
2023-01-11T02:53:50.710Z,986.21
2023-01-11T02:54:50.659Z,986.27
2023-01-11T02:55:50.640Z,986.32
2023-01-11T02:56:50.627Z,986.25
2023-01-11T02:57:50.638Z,986.36
2023-01-11T02:58:50.626Z,986.43
2023-01-11T02:59:50.586Z,986.37
2023-01-11T03:00:50.624Z,986.43
2023-01-11T03:01:50.594Z,986.36
2023-01-11T03:02:50.585Z,986.38
2023-01-11T03:03:50.590Z,986.36
2023-01-11T03:04:50.544Z,986.44
2023-01-11T03:05:50.524Z,986.45
2023-01-11T03:06:50.574Z,986.44
2023-01-11T03:07:50.529Z,986.48
2023-01-11T03:08:50.515Z,986.36
2023-01-11T03:09:50.481Z,986.38
2023-01-11T03:10:50.495Z,986.33
2023-01-11T03:11:50.504Z,986.32
2023-01-11T03:12:50.483Z,986.30
2023-01-11T03:13:50.448Z,986.30
2023-01-11T03:14:50.442Z,986.27
2023-01-11T03:15:50.498Z,986.29
2023-01-11T03:16:50.420Z,986.28
2023-01-11T03:17:50.429Z,986.35
2023-01-11T03:18:50.416Z,986.27
2023-01-11T03:19:50.381Z,986.36
2023-01-11T03:20:50.410Z,986.29
2023-01-11T03:21:50.407Z,986.27
2023-01-11T03:22:50.375Z,986.25
2023-01-11T03:23:50.337Z,986.15
2023-01-11T03:24:50.372Z,986.22
2023-01-11T03:25:50.321Z,986.20
2023-01-11T03:26:50.321Z,986.17
2023-01-11T03:27:50.346Z,986.12
2023-01-11T03:28:50.320Z,986.27
2023-01-11T03:29:50.272Z,986.18
2023-01-11T03:30:50.291Z,986.20
2023-01-11T03:31:50.282Z,986.29
2023-01-11T03:32:50.266Z,986.20
2023-01-11T03:33:50.277Z,986.29
2023-01-11T03:34:50.239Z,986.19
2023-01-11T03:35:50.221Z,986.21
2023-01-11T03:36:50.222Z,986.14
2023-01-11T03:37:50.231Z,986.05
2023-01-11T03:38:50.210Z,986.02
2023-01-11T03:39:50.179Z,986.10
2023-01-11T03:40:50.192Z,985.99
2023-01-11T03:41:50.198Z,986.05
2023-01-11T03:42:50.171Z,985.99
2023-01-11T03:43:50.127Z,986.11
2023-01-11T03:44:50.156Z,986.13
2023-01-11T03:45:50.144Z,986.10
2023-01-11T03:46:50.165Z,986.14
2023-01-11T03:47:50.091Z,986.10
2023-01-11T03:48:50.119Z,986.06
2023-01-11T03:49:50.083Z,985.99
2023-01-11T03:50:50.079Z,985.98
2023-01-11T03:51:50.091Z,986.01
2023-01-11T03:52:50.055Z,985.99
2023-01-11T03:53:50.029Z,985.89
2023-01-11T03:54:50.057Z,985.84
2023-01-11T03:55:50.047Z,985.83
2023-01-11T03:56:50.015Z,985.95
2023-01-11T03:57:50.021Z,985.91
2023-01-11T03:58:50.015Z,985.81
2023-01-11T03:59:49.967Z,985.81
2023-01-11T04:00:50.003Z,985.80
2023-01-11T04:01:49.974Z,985.77
2023-01-11T04:02:49.951Z,985.74
2023-01-11T04:03:49.934Z,985.80
2023-01-11T04:04:49.961Z,985.79
2023-01-11T04:05:49.903Z,985.77
2023-01-11T04:06:49.962Z,985.78
2023-01-11T04:07:49.915Z,985.73
2023-01-11T04:08:49.889Z,985.72
2023-01-11T04:09:49.898Z,985.80
2023-01-11T04:10:49.866Z,985.72
2023-01-11T04:11:49.869Z,985.67
2023-01-11T04:12:49.844Z,985.66
2023-01-11T04:13:49.845Z,985.65
2023-01-11T04:14:49.833Z,985.63
2023-01-11T04:15:49.851Z,985.61
2023-01-11T04:16:49.825Z,985.61
2023-01-11T04:17:49.780Z,985.63
2023-01-11T04:18:49.812Z,985.60
2023-01-11T04:19:49.795Z,985.58
2023-01-11T04:20:49.751Z,985.55
2023-01-11T04:21:49.774Z,985.60
2023-01-11T04:22:49.756Z,985.59
2023-01-11T04:23:49.721Z,985.64
2023-01-11T04:24:49.727Z,985.61
2023-01-11T04:25:49.755Z,985.50
2023-01-11T04:26:49.707Z,985.58
2023-01-11T04:27:49.677Z,985.53
2023-01-11T04:28:49.707Z,985.56
2023-01-11T04:29:49.649Z,985.54
2023-01-11T04:30:49.679Z,985.52
2023-01-11T04:31:49.764Z,985.61
2023-01-11T04:32:49.650Z,985.54
2023-01-11T04:33:49.651Z,985.47
2023-01-11T04:34:49.612Z,985.48
2023-01-11T04:35:49.629Z,985.41
2023-01-11T04:36:49.585Z,985.44
2023-01-11T04:37:49.604Z,985.41
2023-01-11T04:38:49.600Z,985.44
2023-01-11T04:39:49.568Z,985.52
2023-01-11T04:40:49.557Z,985.47
2023-01-11T04:41:49.569Z,985.40
2023-01-11T04:42:49.553Z,985.40
2023-01-11T04:43:49.536Z,985.41
2023-01-11T04:44:49.577Z,985.35
2023-01-11T04:45:49.541Z,985.40
2023-01-11T04:46:49.511Z,985.36
2023-01-11T04:47:49.507Z,985.32
2023-01-11T04:48:49.505Z,985.35
2023-01-11T04:49:49.459Z,985.35
2023-01-11T04:50:49.516Z,985.29
2023-01-11T04:51:49.460Z,985.30
2023-01-11T04:52:49.420Z,985.27
2023-01-11T04:53:49.459Z,985.23
2023-01-11T04:54:49.425Z,985.25
2023-01-11T04:55:49.385Z,985.25
2023-01-11T04:56:49.396Z,985.30
2023-01-11T04:57:49.416Z,985.22
2023-01-11T04:58:49.376Z,985.18
2023-01-11T04:59:49.357Z,985.19
2023-01-11T05:00:49.422Z,985.18
2023-01-11T05:01:49.340Z,985.14
2023-01-11T05:02:49.356Z,985.20
2023-01-11T05:03:49.376Z,985.06
2023-01-11T05:04:49.322Z,985.19
2023-01-11T05:05:49.321Z,985.07
2023-01-11T05:06:49.335Z,985.06
2023-01-11T05:07:49.302Z,985.12
2023-01-11T05:08:49.261Z,985.12
2023-01-11T05:09:49.284Z,985.11
2023-01-11T05:10:49.249Z,985.14
2023-01-11T05:11:49.241Z,985.18
2023-01-11T05:12:49.240Z,985.28
2023-01-11T05:13:49.254Z,985.18
2023-01-11T05:14:49.216Z,985.23
2023-01-11T05:15:49.183Z,985.23
2023-01-11T05:16:49.226Z,985.25
2023-01-11T05:17:49.221Z,985.22
2023-01-11T05:18:49.165Z,985.16
2023-01-11T05:19:49.148Z,985.24
2023-01-11T05:20:49.136Z,985.24
2023-01-11T05:21:49.155Z,985.21
2023-01-11T05:22:49.132Z,985.17
2023-01-11T05:23:49.120Z,985.17
2023-01-11T05:24:49.126Z,985.20
2023-01-11T05:25:49.066Z,985.13
2023-01-11T05:26:49.109Z,985.21
2023-01-11T05:27:49.102Z,985.21
2023-01-11T05:28:49.071Z,985.20
2023-01-11T05:29:49.038Z,985.13
2023-01-11T05:30:49.044Z,985.14
2023-01-11T05:31:49.094Z,985.22
2023-01-11T05:32:49.023Z,985.21
2023-01-11T05:33:49.038Z,985.16
2023-01-11T05:34:48.997Z,985.22
2023-01-11T05:35:48.989Z,985.21
2023-01-11T05:36:48.992Z,985.18
2023-01-11T05:37:49.009Z,985.18
2023-01-11T05:38:48.987Z,985.16
2023-01-11T05:39:48.934Z,985.17
2023-01-11T05:40:49.966Z,985.08
2023-01-11T05:41:48.927Z,985.18
2023-01-11T05:42:48.928Z,985.14
2023-01-11T05:43:48.918Z,985.17
2023-01-11T05:44:48.910Z,985.11
2023-01-11T05:45:48.900Z,985.27
2023-01-11T05:46:48.868Z,985.16
2023-01-11T05:47:48.889Z,985.11
2023-01-11T05:48:48.852Z,985.12
2023-01-11T05:49:48.843Z,985.17
2023-01-11T05:50:48.842Z,985.16
2023-01-11T05:51:48.849Z,985.16
2023-01-11T05:52:48.814Z,985.10
2023-01-11T05:53:48.816Z,985.13
2023-01-11T05:54:48.791Z,985.15
2023-01-11T05:55:48.794Z,985.11
2023-01-11T05:56:48.774Z,985.08
2023-01-11T05:57:48.784Z,985.04
2023-01-11T05:58:48.741Z,985.01
2023-01-11T05:59:48.725Z,984.98
2023-01-11T06:00:48.736Z,984.96
2023-01-11T06:01:48.810Z,984.98
2023-01-11T06:02:48.857Z,985.00
2023-01-11T06:03:48.674Z,985.00
2023-01-11T06:04:48.706Z,984.96
2023-01-11T06:05:48.663Z,984.90
2023-01-11T06:06:48.708Z,984.95
2023-01-11T06:07:48.664Z,985.00
2023-01-11T06:08:48.666Z,985.01
2023-01-11T06:09:48.622Z,984.97
2023-01-11T06:10:48.634Z,984.85
2023-01-11T06:11:48.636Z,984.88
2023-01-11T06:12:48.606Z,984.82
2023-01-11T06:13:48.609Z,984.80
2023-01-11T06:14:48.590Z,984.87
2023-01-11T06:15:48.560Z,984.80
2023-01-11T06:16:48.601Z,984.78
2023-01-11T06:17:48.559Z,984.86
2023-01-11T06:18:48.574Z,984.78
2023-01-11T06:19:48.523Z,984.77
2023-01-11T06:20:48.504Z,984.70
2023-01-11T06:21:48.519Z,984.65
2023-01-11T06:22:48.522Z,984.69
2023-01-11T06:23:48.471Z,984.75
2023-01-11T06:24:48.484Z,984.64
2023-01-11T06:25:48.505Z,984.69
2023-01-11T06:26:48.487Z,984.66
2023-01-11T06:27:48.454Z,984.63
2023-01-11T06:28:48.447Z,984.77
2023-01-11T06:29:48.416Z,984.73
2023-01-11T06:30:48.459Z,984.76
2023-01-11T06:31:48.439Z,984.69
2023-01-11T06:32:48.398Z,984.71
2023-01-11T06:33:49.370Z,984.73
2023-01-11T06:34:48.386Z,984.77
2023-01-11T06:35:48.405Z,984.73
2023-01-11T06:36:48.337Z,984.78
2023-01-11T06:37:48.359Z,984.61
2023-01-11T06:38:48.351Z,984.65
2023-01-11T06:39:48.298Z,984.64
2023-01-11T06:40:48.305Z,984.51
2023-01-11T06:41:48.324Z,984.57
2023-01-11T06:42:48.287Z,984.59
2023-01-11T06:43:48.268Z,984.58
2023-01-11T06:44:48.297Z,984.59
2023-01-11T06:45:48.290Z,984.53
2023-01-11T06:46:48.243Z,984.51
2023-01-11T06:47:48.262Z,984.55
2023-01-11T06:48:48.232Z,984.57
2023-01-11T06:49:48.197Z,984.52
2023-01-11T06:50:48.219Z,984.50
2023-01-11T06:51:48.227Z,984.54
2023-01-11T06:52:48.206Z,984.57
2023-01-11T06:53:48.193Z,984.56
2023-01-11T06:54:48.152Z,984.54
2023-01-11T06:55:48.184Z,984.46
2023-01-11T06:56:48.171Z,984.52
2023-01-11T06:57:48.114Z,984.53
2023-01-11T06:58:48.774Z,984.53
2023-01-11T06:59:48.136Z,984.47
2023-01-11T07:00:48.094Z,984.50
2023-01-11T07:01:48.132Z,984.56
2023-01-11T07:02:48.104Z,984.57
2023-01-11T07:03:48.057Z,984.52
2023-01-11T07:04:48.118Z,984.50
2023-01-11T07:05:48.099Z,984.50
2023-01-11T07:06:48.056Z,984.52
2023-01-11T07:07:48.012Z,984.48
2023-01-11T07:08:48.060Z,984.53
2023-01-11T07:09:47.992Z,984.51
2023-01-11T07:10:48.009Z,984.54
2023-01-11T07:11:48.000Z,984.57
2023-01-11T07:12:47.977Z,984.45
2023-01-11T07:13:47.958Z,984.54
2023-01-11T07:14:47.949Z,984.50
2023-01-11T07:15:49.013Z,984.55
2023-01-11T07:16:47.924Z,984.53
2023-01-11T07:17:47.937Z,984.56
2023-01-11T07:18:47.917Z,984.48
2023-01-11T07:19:47.948Z,984.52
2023-01-11T07:20:47.902Z,984.53
2023-01-11T07:21:47.896Z,984.48
2023-01-11T07:22:47.878Z,984.57
2023-01-11T07:23:47.837Z,984.49
2023-01-11T07:24:48.564Z,984.47
2023-01-11T07:25:48.851Z,984.47
2023-01-11T07:26:47.825Z,984.51
2023-01-11T07:27:47.808Z,984.54
2023-01-11T07:28:47.825Z,984.47
2023-01-11T07:29:47.803Z,984.52
2023-01-11T07:30:58.282Z,984.39
2023-01-11T07:31:49.794Z,984.52
2023-01-11T07:32:47.772Z,984.49
2023-01-11T07:33:47.740Z,984.40
2023-01-11T07:34:47.748Z,984.39
2023-01-11T07:35:47.748Z,984.37
2023-01-11T07:36:47.718Z,984.40
2023-01-11T07:37:47.712Z,984.46
2023-01-11T07:38:47.693Z,984.41
2023-01-11T07:39:47.695Z,984.47
2023-01-11T07:40:47.684Z,984.45
2023-01-11T07:41:47.695Z,984.39
2023-01-11T07:42:47.648Z,984.35
2023-01-11T07:43:47.653Z,984.45
2023-01-11T07:44:47.627Z,984.46
2023-01-11T07:45:47.674Z,984.38
2023-01-11T07:46:47.685Z,984.46
2023-01-11T07:47:47.577Z,984.51
2023-01-11T07:48:47.607Z,984.43
2023-01-11T07:49:47.559Z,984.54
2023-01-11T07:50:47.606Z,984.48
2023-01-11T07:51:47.574Z,984.48
2023-01-11T07:52:47.541Z,984.46
2023-01-11T07:53:48.537Z,984.48
2023-01-11T07:54:47.540Z,984.40
2023-01-11T07:55:47.566Z,984.42
2023-01-11T07:56:47.528Z,984.46
2023-01-11T07:57:47.477Z,984.43
2023-01-11T07:58:47.497Z,984.40
2023-01-11T07:59:47.506Z,984.42
2023-01-11T08:00:47.465Z,984.43
2023-01-11T08:01:47.467Z,984.43
2023-01-11T08:02:47.488Z,984.40
2023-01-11T08:03:47.565Z,984.40
2023-01-11T08:04:47.409Z,984.39
2023-01-11T08:05:47.423Z,984.43
2023-01-11T08:06:47.407Z,984.48
2023-01-11T08:07:47.391Z,984.42
2023-01-11T08:08:47.381Z,984.39
2023-01-11T08:09:47.396Z,984.40
2023-01-11T08:10:47.367Z,984.38
2023-01-11T08:11:47.345Z,984.46
2023-01-11T08:12:48.221Z,984.32
2023-01-11T08:13:47.313Z,984.29
2023-01-11T08:14:47.321Z,984.37
2023-01-11T08:15:47.430Z,984.47
2023-01-11T08:16:47.321Z,984.45
2023-01-11T08:17:47.280Z,984.40
2023-01-11T08:18:47.273Z,984.45
2023-01-11T08:19:47.276Z,984.46
2023-01-11T08:20:47.268Z,984.41
2023-01-11T08:21:47.288Z,984.46
2023-01-11T08:22:47.246Z,984.57
2023-01-11T08:23:51.069Z,984.42
2023-01-11T08:24:53.267Z,984.53
2023-01-11T08:25:47.238Z,984.50
2023-01-11T08:26:47.244Z,984.48
2023-01-11T08:27:47.171Z,984.53
2023-01-11T08:28:47.203Z,984.49
2023-01-11T08:29:47.194Z,984.52
2023-01-11T08:30:47.215Z,984.48
2023-01-11T08:31:47.133Z,984.43
2023-01-11T08:32:47.145Z,984.49
2023-01-11T08:33:47.144Z,984.48
2023-01-11T08:34:47.135Z,984.50
2023-01-11T08:35:47.109Z,984.49
2023-01-11T08:36:47.146Z,984.50
2023-01-11T08:37:47.102Z,984.52
2023-01-11T08:38:47.063Z,984.47
2023-01-11T08:39:47.077Z,984.51
2023-01-11T08:40:47.047Z,984.46
2023-01-11T08:41:47.036Z,984.50
2023-01-11T08:42:47.016Z,984.49
2023-01-11T08:43:47.019Z,984.53
2023-01-11T08:44:46.986Z,984.47
2023-01-11T08:45:47.018Z,984.50
2023-01-11T08:46:47.021Z,984.46
2023-01-11T08:47:46.964Z,984.42
2023-01-11T08:48:46.949Z,984.45
2023-01-11T08:49:46.953Z,984.50
2023-01-11T08:50:46.955Z,984.47
2023-01-11T08:51:46.901Z,984.49
2023-01-11T08:52:46.926Z,984.45
2023-01-11T08:53:46.893Z,984.51
2023-01-11T08:54:46.888Z,984.53
2023-01-11T08:55:46.905Z,984.53
2023-01-11T08:56:46.884Z,984.50
2023-01-11T08:57:46.849Z,984.43
2023-01-11T08:58:46.830Z,984.54
2023-01-11T08:59:46.867Z,984.50
2023-01-11T09:00:47.774Z,984.51
2023-01-11T09:01:46.882Z,984.51
2023-01-11T09:02:46.873Z,984.54
2023-01-11T09:03:46.781Z,984.58
2023-01-11T09:04:46.806Z,984.55
2023-01-11T09:05:46.790Z,984.56
2023-01-11T09:06:46.761Z,984.57
2023-01-11T09:07:46.758Z,984.56
2023-01-11T09:08:46.764Z,984.48
2023-01-11T09:09:46.703Z,984.52
2023-01-11T09:10:46.693Z,984.46
2023-01-11T09:11:46.741Z,984.44
2023-01-11T09:12:46.695Z,984.50
2023-01-11T09:13:46.663Z,984.42
2023-01-11T09:14:46.672Z,984.47
2023-01-11T09:15:46.727Z,984.50
2023-01-11T09:16:46.652Z,984.52
2023-01-11T09:17:46.653Z,984.51
2023-01-11T09:18:46.628Z,984.51
2023-01-11T09:19:46.596Z,984.46
2023-01-11T09:20:46.605Z,984.47
2023-01-11T09:21:46.632Z,984.52
2023-01-11T09:22:46.579Z,984.53
2023-01-11T09:23:46.558Z,984.48
2023-01-11T09:24:46.574Z,984.52
2023-01-11T09:25:46.537Z,984.51
2023-01-11T09:26:46.599Z,984.56
2023-01-11T09:27:46.547Z,984.53
2023-01-11T09:28:46.508Z,984.58
2023-01-11T09:29:46.510Z,984.62
2023-01-11T09:30:46.489Z,984.65
2023-01-11T09:31:46.514Z,984.59
2023-01-11T09:32:46.486Z,984.58
2023-01-11T09:33:46.435Z,984.65
2023-01-11T09:34:46.904Z,984.57
2023-01-11T09:35:47.451Z,984.68
2023-01-11T09:36:46.414Z,984.71
2023-01-11T09:37:46.423Z,984.76
2023-01-11T09:38:47.400Z,984.66
2023-01-11T09:39:46.416Z,984.65
2023-01-11T09:40:46.365Z,984.70
2023-01-11T09:41:46.406Z,984.69
2023-01-11T09:42:46.366Z,984.68
2023-01-11T09:43:46.325Z,984.59
2023-01-11T09:44:46.354Z,984.62
2023-01-11T09:45:46.344Z,984.63
2023-01-11T09:46:46.435Z,984.73
2023-01-11T09:47:46.307Z,984.68
2023-01-11T09:48:46.329Z,984.63
2023-01-11T09:49:46.338Z,984.68
2023-01-11T09:50:46.307Z,984.60
2023-01-11T09:51:46.277Z,984.66
2023-01-11T09:52:46.265Z,984.63
2023-01-11T09:53:46.217Z,984.61
2023-01-11T09:54:46.237Z,984.65
2023-01-11T09:55:46.244Z,984.73
2023-01-11T09:56:46.182Z,984.66
2023-01-11T09:57:46.236Z,984.64
2023-01-11T09:58:46.185Z,984.72
2023-01-11T09:59:46.146Z,984.68
2023-01-11T10:00:46.214Z,984.63
2023-01-11T10:01:46.164Z,984.66
2023-01-11T10:02:46.149Z,984.65
2023-01-11T10:03:46.107Z,984.68
2023-01-11T10:04:46.152Z,984.74
2023-01-11T10:05:46.123Z,984.73
2023-01-11T10:06:46.098Z,984.72
2023-01-11T10:07:46.066Z,984.74
2023-01-11T10:18:23.131Z,984.68
2023-01-11T10:18:27.729Z,984.70
2023-01-11T10:18:30.653Z,984.71
2023-01-11T10:18:39.684Z,984.66
2023-01-11T10:19:17.022Z,984.68
2023-01-11T10:19:48.256Z,984.67
2023-01-11T10:20:45.923Z,984.65
2023-01-11T10:21:45.960Z,984.65
2023-01-11T10:22:45.936Z,984.63
2023-01-11T10:23:47.085Z,984.63
2023-01-11T10:24:45.911Z,984.69
2023-01-11T10:25:45.921Z,984.65
2023-01-11T10:26:45.909Z,984.67
2023-01-11T10:27:45.884Z,984.65
2023-01-11T10:28:45.871Z,984.68
2023-01-11T10:29:45.833Z,984.69
2023-01-11T10:30:45.852Z,984.69
2023-01-11T10:31:45.933Z,984.71
2023-01-11T10:32:45.857Z,984.78
2023-01-11T10:33:45.776Z,984.78
2023-01-11T10:34:45.809Z,984.82
2023-01-11T10:35:45.980Z,984.78
2023-01-11T10:36:45.766Z,984.84
2023-01-11T10:37:45.748Z,984.75
2023-01-11T10:38:45.768Z,984.76
2023-01-11T10:39:45.750Z,984.77
2023-01-11T10:40:45.748Z,984.83
2023-01-11T10:41:45.702Z,984.89
2023-01-11T10:42:45.692Z,984.82
2023-01-11T10:43:45.716Z,984.89
2023-01-11T10:44:45.669Z,984.89
2023-01-11T10:45:45.703Z,984.73
2023-01-11T10:46:45.679Z,984.76
2023-01-11T10:47:45.647Z,984.75
2023-01-11T10:48:45.634Z,984.63
2023-01-11T10:49:45.646Z,984.61
2023-01-11T10:50:45.610Z,984.59
2023-01-11T10:51:45.592Z,984.62
2023-01-11T10:52:45.625Z,984.57
2023-01-11T10:53:45.562Z,984.61
2023-01-11T10:54:46.789Z,984.55
2023-01-11T10:55:45.583Z,984.57
2023-01-11T10:57:02.488Z,984.56
2023-01-11T10:57:59.400Z,984.54
2023-01-11T10:58:46.504Z,984.49
2023-01-11T10:59:45.523Z,984.41
2023-01-11T11:00:45.513Z,984.45
2023-01-11T11:01:45.548Z,984.54
2023-01-11T11:02:45.484Z,984.57
2023-01-11T11:03:45.442Z,984.48
2023-01-11T11:04:45.450Z,984.43
2023-01-11T11:05:45.443Z,984.46
2023-01-11T11:06:45.433Z,984.44
2023-01-11T11:07:45.390Z,984.39
2023-01-11T11:08:45.422Z,984.39
2023-01-11T11:09:45.413Z,984.42
2023-01-11T11:10:45.383Z,984.45
2023-01-11T11:11:45.345Z,984.38
2023-01-11T11:12:45.345Z,984.38
2023-01-11T11:13:45.388Z,984.40
2023-01-11T11:14:45.368Z,984.37
2023-01-11T11:15:45.305Z,984.39
2023-01-11T11:16:45.369Z,984.38
2023-01-11T11:17:45.309Z,984.35
2023-01-11T11:18:45.298Z,984.35
2023-01-11T11:19:45.311Z,984.31
2023-01-11T11:20:45.294Z,984.28
2023-01-11T11:21:45.232Z,984.32
2023-01-11T11:22:45.234Z,984.29
2023-01-11T11:23:45.254Z,984.31
2023-01-11T11:24:45.206Z,984.33
2023-01-11T11:25:45.233Z,984.32
2023-01-11T11:26:45.217Z,984.27
2023-01-11T11:27:45.169Z,984.37
2023-01-11T11:28:45.199Z,984.37
2023-01-11T11:29:45.188Z,984.39
2023-01-11T11:30:45.171Z,984.40
2023-01-11T11:31:45.134Z,984.51
2023-01-11T11:32:45.141Z,984.52
2023-01-11T11:33:45.105Z,984.55
2023-01-11T11:34:45.116Z,984.56
2023-01-11T11:35:45.136Z,984.54
2023-01-11T11:36:45.092Z,984.54
2023-01-11T11:37:45.060Z,984.48
2023-01-11T11:38:45.052Z,984.46
2023-01-11T11:39:45.079Z,984.39
2023-01-11T11:40:45.063Z,984.49
2023-01-11T11:41:45.027Z,984.46
2023-01-11T11:42:45.008Z,984.46
2023-01-11T11:43:45.063Z,984.45
2023-01-11T11:44:45.006Z,984.41
2023-01-11T11:45:44.992Z,984.35
2023-01-11T11:46:44.985Z,984.43
2023-01-11T11:47:44.984Z,984.38
2023-01-11T11:48:45.943Z,984.41
2023-01-11T11:49:44.990Z,984.40
2023-01-11T11:50:46.070Z,984.37
2023-01-11T11:51:44.908Z,984.36
2023-01-11T11:52:44.898Z,984.28
2023-01-11T11:53:44.919Z,984.27
2023-01-11T11:54:44.885Z,984.25
2023-01-11T11:55:44.869Z,984.25
2023-01-11T11:56:44.877Z,984.29
2023-01-11T11:57:44.836Z,984.23
2023-01-11T11:58:44.853Z,984.17
2023-01-11T11:59:44.865Z,984.16
2023-01-11T12:00:44.830Z,984.12
2023-01-11T12:01:44.796Z,984.15
2023-01-11T12:02:44.809Z,984.11
2023-01-11T12:03:44.808Z,984.08
2023-01-11T12:04:44.786Z,984.09
2023-01-11T12:05:44.793Z,984.05
2023-01-11T12:06:44.766Z,984.12
2023-01-11T12:07:54.290Z,984.10
2023-01-11T12:08:46.764Z,984.18
2023-01-11T12:09:44.735Z,984.19
2023-01-11T12:10:44.722Z,984.25
2023-01-11T12:11:44.697Z,984.27
2023-01-11T12:12:44.688Z,984.17
2023-01-11T12:13:44.703Z,984.27
2023-01-11T12:14:44.676Z,984.33
2023-01-11T12:15:44.634Z,984.29
2023-01-11T12:16:44.702Z,984.30
2023-01-11T12:17:44.647Z,984.29
2023-01-11T12:18:44.707Z,984.30
2023-01-11T12:19:44.597Z,984.32
2023-01-11T12:20:44.627Z,984.25
2023-01-11T12:21:44.560Z,984.20
2023-01-11T12:22:44.586Z,984.16
2023-01-11T12:23:44.578Z,984.16
2023-01-11T12:24:44.559Z,984.10
2023-01-11T12:25:44.543Z,984.08
2023-01-11T12:26:44.669Z,984.08
2023-01-11T12:27:44.523Z,984.03
2023-01-11T12:28:44.496Z,984.05
2023-01-11T12:29:44.535Z,984.08
2023-01-11T12:30:44.517Z,984.02
2023-01-11T12:31:44.469Z,984.04
2023-01-11T12:32:44.479Z,984.07
2023-01-11T12:33:44.467Z,984.09
2023-01-11T12:34:44.447Z,984.09